createdAt,value
2019-04-29T00:02:37.023Z,4.12
2019-04-29T00:05:26.154Z,3.33
2019-04-29T00:08:15.344Z,4.97
2019-04-29T00:11:05.697Z,4.60
2019-04-29T00:13:55.128Z,4.08
2019-04-29T00:17:03.993Z,3.75
2019-04-29T00:20:05.367Z,4.33
2019-04-29T00:22:54.543Z,4.58
2019-04-29T00:25:43.930Z,4.22
2019-04-29T00:28:33.049Z,3.65
2019-04-29T00:31:22.931Z,3.42
2019-04-29T00:34:12.705Z,3.27
2019-04-29T00:37:08.748Z,3.60
2019-04-29T00:40:15.617Z,6.03
2019-04-29T00:43:18.728Z,5.47
2019-04-29T00:46:07.905Z,4.47
2019-04-29T00:48:57.280Z,4.17
2019-04-29T00:51:46.521Z,3.80
2019-04-29T00:54:41.814Z,4.58
2019-04-29T00:57:31.153Z,7.22
2019-04-29T01:00:41.176Z,4.37
2019-04-29T01:03:30.333Z,3.98
2019-04-29T01:06:19.909Z,4.17
2019-04-29T01:09:11.054Z,3.70
2019-04-29T01:12:00.567Z,5.08
2019-04-29T01:14:50.308Z,3.55
2019-04-29T01:17:40.008Z,4.53
2019-04-29T01:20:29.984Z,4.75
2019-04-29T01:23:19.115Z,4.85
2019-04-29T01:26:34.042Z,4.30
2019-04-29T01:29:24.439Z,3.67
2019-04-29T01:32:14.316Z,3.60
2019-04-29T01:35:04.466Z,3.33
2019-04-29T01:37:53.847Z,4.42
2019-04-29T01:41:01.720Z,3.60
2019-04-29T01:44:07.622Z,4.05
2019-04-29T01:46:57.281Z,3.53
2019-04-29T01:49:46.158Z,3.75
2019-04-29T01:52:35.752Z,4.45
2019-04-29T01:55:25.371Z,3.85
2019-04-29T01:58:15.595Z,2.80
2019-04-29T02:01:04.639Z,4.62
2019-04-29T02:03:54.399Z,5.95
2019-04-29T02:06:44.351Z,4.22
2019-04-29T02:09:39.180Z,4.28
2019-04-29T02:12:28.749Z,4.33
2019-04-29T02:15:18.461Z,4.37
2019-04-29T02:18:08.051Z,4.62
2019-04-29T02:20:59.134Z,3.70
2019-04-29T02:24:02.061Z,4.53
2019-04-29T02:26:51.587Z,3.58
2019-04-29T02:29:41.304Z,4.33
2019-04-29T02:32:30.421Z,4.28
2019-04-29T02:35:19.936Z,6.20
2019-04-29T02:38:11.701Z,4.30
2019-04-29T02:41:20.615Z,4.60
2019-04-29T02:44:11.675Z,6.12
2019-04-29T02:47:01.145Z,4.62
2019-04-29T02:49:50.979Z,5.08
2019-04-29T02:52:40.012Z,5.12
2019-04-29T02:55:33.682Z,4.35
2019-04-29T02:58:32.784Z,4.67
2019-04-29T03:01:41.132Z,3.72
2019-04-29T03:04:34.385Z,3.72
2019-04-29T03:07:24.152Z,5.83
2019-04-29T03:10:13.220Z,4.70
2019-04-29T03:13:02.889Z,3.98
2019-04-29T03:15:52.239Z,4.55
2019-04-29T03:18:46.669Z,5.00
2019-04-29T03:21:47.609Z,5.90
2019-04-29T03:24:36.776Z,4.40
2019-04-29T03:27:26.470Z,4.58
2019-04-29T03:30:17.551Z,4.65
2019-04-29T03:33:06.544Z,4.17
2019-04-29T03:35:55.736Z,5.33
2019-04-29T03:38:45.095Z,5.60
2019-04-29T03:41:34.910Z,5.30
2019-04-29T03:44:24.539Z,5.70
2019-04-29T03:47:13.411Z,6.72
2019-04-29T03:50:03.081Z,7.03
2019-04-29T03:52:52.341Z,5.70
2019-04-29T03:55:41.881Z,4.67
2019-04-29T03:58:31.771Z,5.05
2019-04-29T04:01:29.400Z,5.25
2019-04-29T04:04:36.448Z,6.42
2019-04-29T04:10:39.542Z,5.87
2019-04-29T04:13:29.250Z,6.42
2019-04-29T04:16:29.085Z,5.87
2019-04-29T04:19:18.782Z,7.65
2019-04-29T04:22:07.929Z,5.75
2019-04-29T04:24:57.355Z,6.53
2019-04-29T04:27:46.789Z,6.08
2019-04-29T04:30:36.144Z,7.83
2019-04-29T04:33:26.069Z,7.00
2019-04-29T04:36:16.225Z,6.33
2019-04-29T04:39:07.565Z,6.90
2019-04-29T04:41:57.669Z,6.45
2019-04-29T04:44:50.551Z,6.20
2019-04-29T04:47:40.157Z,6.83
2019-04-29T04:50:29.511Z,9.83
2019-04-29T04:53:18.742Z,8.98
2019-04-29T04:56:08.328Z,8.53
2019-04-29T04:58:58.598Z,10.40
2019-04-29T05:01:48.449Z,12.30
2019-04-29T05:04:37.521Z,13.25
2019-04-29T05:07:26.456Z,9.88
2019-04-29T05:10:16.065Z,12.58
2019-04-29T05:13:05.235Z,10.65
2019-04-29T05:15:54.878Z,9.75
2019-04-29T05:18:44.470Z,10.35
2019-04-29T05:21:33.307Z,9.50
2019-04-29T05:24:22.974Z,9.38
2019-04-29T05:27:11.955Z,8.80
2019-04-29T05:30:01.438Z,8.43
2019-04-29T05:32:50.624Z,8.18
2019-04-29T05:36:04.456Z,7.50
2019-04-29T05:39:12.649Z,10.20
2019-04-29T05:42:02.252Z,9.58
2019-04-29T05:45:00.389Z,10.18
2019-04-29T05:47:58.418Z,7.55
2019-04-29T05:50:53.936Z,10.05
2019-04-29T05:53:47.304Z,8.68
2019-04-29T05:56:37.570Z,7.50
2019-04-29T05:59:26.601Z,9.15
2019-04-29T06:02:16.359Z,8.85
2019-04-29T06:05:06.102Z,7.75
2019-04-29T06:07:56.265Z,8.05
2019-04-29T06:10:46.971Z,8.95
2019-04-29T06:13:36.255Z,10.28
2019-04-29T06:16:26.212Z,7.78
2019-04-29T06:19:16.037Z,9.20
2019-04-29T06:22:04.766Z,7.87
2019-04-29T06:24:53.971Z,9.18
2019-04-29T06:27:43.819Z,8.08
2019-04-29T06:30:33.208Z,9.15
2019-04-29T06:33:24.225Z,9.40
2019-04-29T06:36:13.688Z,8.88
2019-04-29T06:39:05.547Z,8.58
2019-04-29T06:41:55.332Z,8.68
2019-04-29T06:44:49.001Z,6.40
2019-04-29T06:47:35.531Z,8.83
2019-04-29T06:50:24.583Z,9.13
2019-04-29T06:53:16.445Z,6.87
2019-04-29T06:56:04.597Z,9.18
2019-04-29T06:58:53.914Z,9.63
2019-04-29T07:01:43.651Z,8.83
2019-04-29T07:04:38.471Z,8.63
2019-04-29T07:07:24.242Z,9.23
2019-04-29T07:10:21.281Z,8.93
2019-04-29T07:13:17.919Z,9.58
2019-04-29T07:16:06.155Z,11.80
2019-04-29T07:18:55.924Z,8.45
2019-04-29T07:21:46.907Z,10.65
2019-04-29T07:24:38.433Z,12.70
2019-04-29T07:27:30.065Z,11.45
2019-04-29T07:30:21.815Z,9.03
2019-04-29T07:33:11.995Z,10.20
2019-04-29T07:36:10.799Z,9.40
2019-04-29T07:38:57.401Z,12.03
2019-04-29T07:41:49.491Z,12.20
2019-04-29T07:44:52.834Z,13.10
2019-04-29T07:47:41.442Z,10.00
2019-04-29T07:50:31.660Z,12.88
2019-04-29T07:53:35.062Z,10.32
2019-04-29T07:56:16.931Z,9.73
2019-04-29T07:59:07.218Z,13.70
2019-04-29T08:01:59.757Z,9.43
2019-04-29T08:04:47.265Z,9.20
2019-04-29T08:07:36.273Z,9.63
2019-04-29T08:10:28.611Z,10.05
2019-04-29T08:13:16.441Z,8.68
2019-04-29T08:16:05.944Z,9.48
2019-04-29T08:18:55.588Z,10.53
2019-04-29T08:21:45.548Z,8.48
2019-04-29T08:24:37.518Z,8.63
2019-04-29T08:27:39.212Z,7.25
2019-04-29T08:30:18.384Z,9.48
2019-04-29T08:33:12.001Z,8.30
2019-04-29T08:35:58.894Z,8.88
2019-04-29T08:38:48.321Z,6.35
2019-04-29T08:41:37.237Z,5.83
2019-04-29T08:44:47.189Z,5.20
2019-04-29T08:47:39.061Z,4.58
2019-04-29T08:50:28.389Z,5.30
2019-04-29T08:53:17.128Z,6.80
2019-04-29T08:56:10.357Z,6.72
2019-04-29T08:58:57.513Z,5.33
2019-04-29T09:01:47.074Z,7.55
2019-04-29T09:04:36.511Z,5.08
2019-04-29T09:07:25.797Z,5.35
2019-04-29T09:10:15.074Z,5.92
2019-04-29T09:13:04.634Z,8.75
2019-04-29T09:15:54.272Z,5.87
2019-04-29T09:18:43.690Z,5.28
2019-04-29T09:21:33.434Z,4.65
2019-04-29T09:24:22.211Z,7.25
2019-04-29T09:27:16.407Z,5.37
2019-04-29T09:30:06.442Z,5.85
2019-04-29T09:32:55.859Z,5.12
2019-04-29T09:35:45.991Z,6.00
2019-04-29T09:38:36.878Z,4.70
2019-04-29T09:41:45.868Z,4.50
2019-04-29T09:44:56.816Z,3.62
2019-04-29T09:47:45.802Z,8.53
2019-04-29T09:50:39.220Z,2.60
2019-04-29T09:53:26.778Z,3.05
2019-04-29T09:56:17.520Z,4.15
2019-04-29T09:59:25.845Z,1.47
2019-04-29T10:02:40.719Z,2.77
2019-04-29T10:05:34.659Z,1.67
2019-04-29T10:08:24.715Z,2.65
2019-04-29T10:11:14.058Z,3.98
2019-04-29T10:14:03.389Z,2.15
2019-04-29T10:17:11.166Z,2.77
2019-04-29T10:20:22.319Z,3.55
2019-04-29T10:23:14.930Z,1.95
2019-04-29T10:26:04.808Z,1.90
2019-04-29T10:29:03.331Z,3.10
2019-04-29T10:31:52.916Z,3.40
2019-04-29T10:34:43.201Z,4.20
2019-04-29T10:37:34.197Z,3.17
2019-04-29T10:40:50.028Z,4.58
2019-04-29T10:44:04.720Z,3.50
2019-04-29T10:47:01.400Z,3.67
2019-04-29T10:49:57.171Z,2.27
2019-04-29T10:52:46.516Z,1.50
2019-04-29T10:55:35.650Z,4.08
2019-04-29T10:58:29.877Z,2.65
2019-04-29T11:02:01.128Z,1.57
2019-04-29T11:04:46.204Z,2.40
2019-04-29T11:07:38.741Z,3.83
2019-04-29T11:10:32.069Z,2.17
2019-04-29T11:13:21.702Z,2.87
2019-04-29T11:16:12.713Z,1.72
2019-04-29T11:19:05.358Z,1.62
2019-04-29T11:21:53.861Z,2.55
2019-04-29T11:25:03.850Z,1.60
2019-04-29T11:27:56.220Z,1.45
2019-04-29T11:30:45.738Z,3.05
2019-04-29T11:33:51.307Z,1.50
2019-04-29T11:36:43.962Z,1.50
2019-04-29T11:39:31.604Z,2.87
2019-04-29T11:42:21.048Z,1.22
2019-04-29T11:45:13.724Z,2.75
2019-04-29T11:48:03.662Z,1.80
2019-04-29T11:51:01.336Z,2.98
2019-04-29T11:53:52.710Z,1.92
2019-04-29T11:56:43.686Z,1.57
2019-04-29T11:59:51.802Z,1.90
2019-04-29T12:02:48.487Z,3.00
2019-04-29T12:05:44.809Z,1.07
2019-04-29T12:11:27.872Z,1.35
2019-04-29T12:14:21.350Z,1.07
2019-04-29T12:17:20.943Z,2.45
2019-04-29T12:20:25.829Z,2.58
2019-04-29T12:23:15.809Z,2.60
2019-04-29T12:26:06.593Z,2.10
2019-04-29T12:28:55.869Z,3.15
2019-04-29T12:31:52.325Z,1.82
2019-04-29T12:38:10.512Z,3.65
2019-04-29T12:41:19.692Z,2.67
2019-04-29T12:44:06.940Z,3.58
2019-04-29T12:47:04.030Z,2.72
2019-04-29T12:49:53.409Z,3.70
2019-04-29T12:52:42.503Z,2.60
2019-04-29T12:55:45.204Z,4.00
2019-04-29T12:58:29.115Z,3.55
2019-04-29T13:01:50.168Z,2.83
2019-04-29T13:04:49.743Z,2.60
2019-04-29T13:07:52.932Z,2.90
2019-04-29T13:10:48.371Z,2.60
2019-04-29T13:13:37.321Z,2.02
2019-04-29T13:16:50.844Z,4.85
2019-04-29T13:19:47.310Z,4.10
2019-04-29T13:22:36.143Z,4.60
2019-04-29T13:25:26.901Z,1.32
2019-04-29T13:28:29.482Z,2.60
2019-04-29T13:31:09.451Z,3.62
2019-04-29T13:34:08.972Z,4.35
2019-04-29T13:37:06.028Z,2.60
2019-04-29T13:39:42.498Z,2.72
2019-04-29T13:42:31.258Z,1.82
2019-04-29T13:45:26.454Z,2.37
2019-04-29T13:48:23.628Z,1.82
2019-04-29T13:51:34.781Z,3.27
2019-04-29T13:54:08.725Z,2.87
2019-04-29T13:57:08.638Z,3.47
2019-04-29T14:00:02.858Z,3.15
2019-04-29T14:02:59.101Z,3.52
2019-04-29T14:05:48.802Z,3.12
2019-04-29T14:08:38.413Z,4.87
2019-04-29T14:11:27.835Z,4.58
2019-04-29T14:14:18.023Z,4.17
2019-04-29T14:17:25.332Z,3.47
2019-04-29T14:20:00.627Z,5.08
2019-04-29T14:22:50.713Z,2.60
2019-04-29T14:25:40.067Z,5.05
2019-04-29T14:28:29.537Z,4.15
2019-04-29T14:31:22.494Z,4.35
2019-04-29T14:34:20.267Z,3.35
2019-04-29T14:37:21.169Z,3.22
2019-04-29T14:40:02.742Z,4.42
2019-04-29T14:43:25.796Z,3.33
2019-04-29T14:46:27.170Z,6.87
2019-04-29T14:49:23.334Z,7.10
2019-04-29T14:52:13.257Z,4.60
2019-04-29T14:55:03.854Z,4.08
2019-04-29T14:57:52.623Z,4.17
2019-04-29T15:01:03.512Z,3.42
2019-04-29T15:04:18.576Z,5.00
2019-04-29T15:07:02.833Z,4.37
2019-04-29T15:09:55.774Z,3.25
2019-04-29T15:13:01.439Z,4.10
2019-04-29T15:16:09.615Z,3.20
2019-04-29T15:19:04.147Z,3.55
2019-04-29T15:21:58.456Z,4.12
2019-04-29T15:24:47.255Z,4.20
2019-04-29T15:27:36.767Z,4.55
2019-04-29T15:30:26.359Z,2.70
2019-04-29T15:33:15.102Z,3.45
2019-04-29T15:36:04.353Z,5.22
2019-04-29T15:39:09.131Z,4.03
2019-04-29T15:41:44.573Z,3.45
2019-04-29T15:44:34.176Z,4.37
2019-04-29T15:47:27.761Z,4.12
2019-04-29T15:50:18.675Z,5.37
2019-04-29T15:53:05.893Z,4.17
2019-04-29T15:56:06.500Z,4.50
2019-04-29T15:58:47.548Z,4.97
2019-04-29T16:01:41.003Z,3.35
2019-04-29T16:04:33.642Z,5.37
2019-04-29T16:07:51.571Z,6.73
2019-04-29T16:11:01.539Z,3.87
2019-04-29T16:14:08.383Z,3.17
2019-04-29T16:16:40.965Z,2.80
2019-04-29T16:19:31.032Z,6.97
2019-04-29T16:22:22.275Z,3.55
2019-04-29T16:25:12.971Z,5.40
2019-04-29T16:28:02.175Z,4.42
2019-04-29T16:30:51.809Z,5.08
2019-04-29T16:33:41.119Z,3.67
2019-04-29T16:36:30.380Z,5.40
2019-04-29T16:39:20.119Z,5.80
2019-04-29T16:42:26.936Z,5.65
2019-04-29T16:45:16.692Z,3.35
2019-04-29T16:48:06.234Z,3.75
2019-04-29T16:50:55.888Z,4.22
2019-04-29T16:53:45.357Z,3.87
2019-04-29T16:56:34.660Z,4.87
2019-04-29T16:59:23.424Z,4.78
2019-04-29T17:02:19.095Z,5.00
2019-04-29T17:05:06.895Z,4.83
2019-04-29T17:07:56.732Z,4.37
2019-04-29T17:10:53.126Z,5.35
2019-04-29T17:13:42.456Z,5.00
2019-04-29T17:16:32.286Z,5.30
2019-04-29T17:19:21.413Z,7.33
2019-04-29T17:22:25.343Z,4.30
2019-04-29T17:25:01.596Z,5.62
2019-04-29T17:27:57.821Z,3.50
2019-04-29T17:31:11.707Z,4.28
2019-04-29T17:33:59.615Z,2.50
2019-04-29T17:36:50.265Z,3.20
2019-04-29T17:39:39.348Z,3.00
2019-04-29T17:42:30.708Z,2.40
2019-04-29T17:45:30.770Z,3.80
2019-04-29T17:48:29.890Z,3.52
2019-04-29T17:51:19.630Z,3.10
2019-04-29T17:54:10.844Z,2.50
2019-04-29T17:57:31.459Z,4.95
2019-04-29T18:00:43.876Z,3.17
2019-04-29T18:03:42.890Z,2.98
2019-04-29T18:06:35.746Z,3.75
2019-04-29T18:09:36.511Z,4.72
2019-04-29T18:12:26.089Z,3.72
2019-04-29T18:15:20.072Z,3.37
2019-04-29T18:18:16.972Z,4.50
2019-04-29T18:21:43.549Z,4.00
2019-04-29T18:24:57.367Z,4.50
2019-04-29T18:27:49.106Z,5.10
2019-04-29T18:30:38.554Z,5.42
2019-04-29T18:33:30.181Z,7.28
2019-04-29T18:36:23.630Z,5.60
2019-04-29T18:39:10.996Z,7.53
2019-04-29T18:42:03.113Z,5.65
2019-04-29T18:44:59.389Z,4.83
2019-04-29T18:47:41.886Z,5.05
2019-04-29T18:50:34.199Z,4.30
2019-04-29T18:53:22.862Z,6.12
2019-04-29T18:56:12.615Z,4.37
2019-04-29T18:59:02.946Z,7.55
2019-04-29T19:01:54.806Z,4.35
2019-04-29T19:05:09.225Z,5.05
2019-04-29T19:08:11.479Z,5.70
2019-04-29T19:10:51.327Z,4.60
2019-04-29T19:13:43.564Z,4.95
2019-04-29T19:16:32.399Z,3.80
2019-04-29T19:19:21.580Z,4.78
2019-04-29T19:22:11.316Z,3.33
2019-04-29T19:25:08.677Z,4.08
2019-04-29T19:27:57.740Z,3.60
2019-04-29T19:30:47.160Z,3.90
2019-04-29T19:33:39.300Z,4.62
2019-04-29T19:36:27.413Z,2.72
2019-04-29T19:39:21.187Z,6.30
2019-04-29T19:42:07.699Z,2.98
2019-04-29T19:44:57.446Z,4.78
2019-04-29T19:47:53.056Z,4.83
2019-04-29T19:50:38.808Z,3.47
2019-04-29T19:53:28.183Z,6.55
2019-04-29T19:56:23.177Z,3.42
2019-04-29T19:59:13.462Z,3.92
2019-04-29T20:02:05.517Z,3.98
2019-04-29T20:05:10.953Z,3.20
2019-04-29T20:08:01.062Z,5.30
2019-04-29T20:10:52.571Z,5.12
2019-04-29T20:13:58.255Z,3.95
2019-04-29T20:16:57.364Z,3.67
2019-04-29T20:19:58.674Z,2.60
2019-04-29T20:22:46.305Z,2.95
2019-04-29T20:25:38.046Z,4.70
2019-04-29T20:28:25.893Z,3.20
2019-04-29T20:31:21.700Z,2.20
2019-04-29T20:34:07.792Z,3.08
2019-04-29T20:36:57.804Z,3.27
2019-04-29T20:39:47.615Z,3.70
2019-04-29T20:42:40.396Z,2.22
2019-04-29T20:45:31.243Z,4.42
2019-04-29T20:48:21.243Z,2.52
2019-04-29T20:51:13.719Z,3.50
2019-04-29T20:54:16.010Z,2.98
2019-04-29T20:57:04.895Z,3.50
2019-04-29T20:59:51.982Z,2.58
2019-04-29T21:02:42.244Z,1.92
2019-04-29T21:05:32.411Z,5.10
2019-04-29T21:08:22.031Z,2.25
2019-04-29T21:11:21.075Z,4.17
2019-04-29T21:14:35.932Z,4.75
2019-04-29T21:17:30.688Z,2.20
2019-04-29T21:20:17.164Z,4.12
2019-04-29T21:23:06.679Z,5.05
2019-04-29T21:26:00.565Z,2.87
2019-04-29T21:28:47.144Z,2.40
2019-04-29T21:31:36.488Z,3.87
2019-04-29T21:34:29.665Z,3.17
2019-04-29T21:37:48.058Z,2.27
2019-04-29T21:40:42.232Z,2.65
2019-04-29T21:43:35.439Z,2.95
2019-04-29T21:46:28.360Z,3.40
2019-04-29T21:49:15.590Z,4.03
2019-04-29T21:52:07.541Z,3.00
2019-04-29T21:54:57.396Z,6.30
2019-04-29T21:57:47.720Z,4.05
2019-04-29T22:00:38.777Z,2.40
2019-04-29T22:03:28.064Z,4.05
2019-04-29T22:06:17.715Z,2.27
2019-04-29T22:09:08.547Z,2.65
2019-04-29T22:11:57.604Z,2.83
2019-04-29T22:14:52.479Z,5.00
2019-04-29T22:17:38.153Z,2.65
2019-04-29T22:20:28.226Z,3.47
2019-04-29T22:23:17.924Z,3.65
2019-04-29T22:26:06.819Z,3.77
2019-04-29T22:29:01.818Z,5.42
2019-04-29T22:31:46.839Z,3.83
2019-04-29T22:34:36.262Z,4.17
2019-04-29T22:37:25.549Z,4.60
2019-04-29T22:40:15.415Z,5.95
2019-04-29T22:43:14.265Z,3.52
2019-04-29T22:46:04.722Z,4.47
2019-04-29T22:48:55.719Z,4.92
2019-04-29T22:51:45.643Z,3.72
2019-04-29T22:54:37.899Z,2.92
2019-04-29T22:57:31.529Z,4.15
2019-04-29T23:00:21.599Z,3.50
2019-04-29T23:03:11.028Z,3.20
2019-04-29T23:06:04.103Z,3.08
2019-04-29T23:08:50.969Z,4.22
2019-04-29T23:11:40.908Z,3.75
2019-04-29T23:14:30.835Z,4.70
2019-04-29T23:17:20.166Z,4.85
2019-04-29T23:20:25.473Z,3.83
2019-04-29T23:23:18.082Z,5.00
2019-04-29T23:26:07.484Z,3.95
2019-04-29T23:28:59.418Z,5.47
2019-04-29T23:31:48.169Z,3.37
2019-04-29T23:34:37.407Z,3.85
2019-04-29T23:37:27.629Z,4.67
2019-04-29T23:40:18.256Z,5.30
2019-04-29T23:43:07.599Z,6.45
2019-04-29T23:46:00.482Z,4.53
2019-04-29T23:48:48.107Z,6.58
2019-04-29T23:51:37.842Z,6.67
2019-04-29T23:54:30.551Z,6.30
2019-04-29T23:57:27.167Z,6.97
